Time;durP1;ratioP1;P1;durP2;ratioP2;P2;SDS_P1;SDS_P2;PMS_P1;PMS_P2;Temp;Humidity;BMP_temperature;BMP_pressure;BME280_temperature;BME280_humidity;BME280_pressure;Samples;Min_cycle;Max_cycle;Signal;HPM_P1;HPM_P2
2023/09/25 00:00:34;;;;;;;6.90;2.42;;;;;;;11.94;100.00;102020.63;5047839;28;20049;-54
2023/09/25 00:03:04;;;;;;;4.90;2.40;;;;;;;11.85;100.00;102021.97;5048084;28;20047;-51
2023/09/25 00:05:34;;;;;;;5.00;2.15;;;;;;;11.82;100.00;102020.34;5050764;28;20547;-52
2023/09/25 00:08:03;;;;;;;5.20;2.15;;;;;;;11.81;100.00;102023.06;5048450;28;20041;-52
2023/09/25 00:10:32;;;;;;;4.72;2.15;;;;;;;11.86;100.00;102028.91;5046326;28;20147;-53
2023/09/25 00:13:00;;;;;;;8.43;2.50;;;;;;;11.74;100.00;102025.16;5048151;28;20052;-54
2023/09/25 00:15:28;;;;;;;4.88;2.20;;;;;;;11.65;100.00;102029.09;5047727;28;20099;-55
2023/09/25 00:17:57;;;;;;;5.03;2.50;;;;;;;11.58;100.00;102030.34;5047743;28;20049;-57
2023/09/25 00:20:26;;;;;;;6.63;2.58;;;;;;;11.63;100.00;102030.09;5051956;28;20057;-54
2023/09/25 00:22:56;;;;;;;5.90;2.40;;;;;;;11.63;100.00;102028.34;5054297;28;20041;-53
2023/09/25 00:25:28;;;;;;;5.03;2.30;;;;;;;11.64;100.00;102034.44;5050001;28;20048;-53
2023/09/25 00:27:56;;;;;;;6.43;2.58;;;;;;;11.53;100.00;102036.78;5053213;28;20124;-52
2023/09/25 00:30:24;;;;;;;6.07;2.47;;;;;;;11.55;100.00;102034.91;5053839;28;20053;-54
2023/09/25 00:32:52;;;;;;;5.20;2.40;;;;;;;11.49;100.00;102036.06;5051938;28;20412;-55
2023/09/25 00:35:21;;;;;;;5.07;2.03;;;;;;;11.47;100.00;102041.41;5051373;28;20045;-55
2023/09/25 00:37:49;;;;;;;5.45;2.20;;;;;;;11.45;100.00;102037.16;5051496;28;20057;-56
2023/09/25 00:40:21;;;;;;;7.97;2.13;;;;;;;11.42;100.00;102035.50;5049776;28;20128;-54
2023/09/25 00:42:51;;;;;;;7.78;2.30;;;;;;;11.44;100.00;102038.94;5050560;28;20057;-54
2023/09/25 00:45:19;;;;;;;5.25;2.00;;;;;;;11.42;100.00;102034.69;5051503;28;20139;-54
2023/09/25 00:47:47;;;;;;;4.68;1.80;;;;;;;11.37;100.00;102034.91;5051288;28;20375;-56
2023/09/25 00:50:17;;;;;;;4.30;1.90;;;;;;;11.36;100.00;102029.69;5051279;28;20063;-55
2023/09/25 00:52:46;;;;;;;5.80;1.98;;;;;;;11.37;100.00;102026.13;5052490;28;20085;-52
2023/09/25 00:55:16;;;;;;;5.43;2.47;;;;;;;11.36;100.00;102021.78;5049689;28;20053;-55
2023/09/25 00:57:50;;;;;;;5.30;2.00;;;;;;;11.29;100.00;102023.91;5051569;28;20095;-54
2023/09/25 01:00:18;;;;;;;5.00;2.00;;;;;;;11.31;100.00;102022.03;5053984;28;20503;-55
2023/09/25 01:02:47;;;;;;;5.50;1.80;;;;;;;11.28;100.00;102023.03;5051164;28;20053;-55
2023/09/25 01:05:16;;;;;;;5.40;1.80;;;;;;;11.25;100.00;102017.94;5050155;28;20045;-53
2023/09/25 01:07:45;;;;;;;6.03;2.03;;;;;;;11.30;100.00;102026.47;5051096;28;20045;-53
2023/09/25 01:10:16;;;;;;;3.58;1.55;;;;;;;11.34;100.00;102021.88;5049176;28;20057;-55
2023/09/25 01:12:47;;;;;;;4.28;1.77;;;;;;;11.30;100.00;102018.56;5051182;28;20151;-54
2023/09/25 01:15:16;;;;;;;5.82;1.80;;;;;;;11.29;100.00;102016.00;5054446;28;20036;-55
2023/09/25 01:17:44;;;;;;;3.65;1.42;;;;;;;11.29;100.00;102027.38;5054417;28;20048;-55
2023/09/25 01:20:15;;;;;;;5.13;1.70;;;;;;;11.38;100.00;102033.13;5051686;28;20052;-54
2023/09/25 01:22:46;;;;;;;5.57;1.73;;;;;;;11.45;100.00;102026.59;5051038;28;20041;-55
2023/09/25 01:25:15;;;;;;;4.70;1.88;;;;;;;11.38;100.00;102025.22;5054120;28;20388;-55
2023/09/25 01:27:46;;;;;;;3.78;1.70;;;;;;;11.40;100.00;102029.50;5054207;28;20049;-55
2023/09/25 01:30:15;;;;;;;4.32;1.77;;;;;;;11.32;100.00;102023.75;5052867;28;20053;-54
2023/09/25 01:32:45;;;;;;;4.60;1.80;;;;;;;11.40;100.00;102020.72;5050792;28;20124;-55
2023/09/25 01:35:17;;;;;;;4.85;1.65;;;;;;;11.31;100.00;102028.16;5049805;28;20072;-54
2023/09/25 01:37:48;;;;;;;6.88;2.10;;;;;;;11.45;100.00;102013.44;5050643;28;20060;-55
2023/09/25 01:40:18;;;;;;;3.75;1.80;;;;;;;11.37;100.00;102011.22;5051555;28;20041;-54
2023/09/25 01:42:49;;;;;;;5.70;1.70;;;;;;;11.36;100.00;102011.25;5050698;28;20090;-53
2023/09/25 01:45:19;;;;;;;3.78;1.80;;;;;;;11.30;100.00;102013.28;5052602;28;20099;-56
2023/09/25 01:47:50;;;;;;;4.47;2.00;;;;;;;11.30;100.00;102013.28;5053726;28;20488;-55
2023/09/25 01:50:20;;;;;;;3.47;1.60;;;;;;;11.33;100.00;102013.13;5053648;28;20131;-55
2023/09/25 01:52:56;;;;;;;4.18;1.85;;;;;;;11.35;100.00;102010.41;5053599;28;20049;-54
2023/09/25 01:55:27;;;;;;;3.78;1.58;;;;;;;11.31;100.00;102012.34;5050955;28;20131;-55
2023/09/25 01:57:56;;;;;;;3.35;1.58;;;;;;;11.28;100.00;102004.59;5050134;28;20061;-55
2023/09/25 02:00:24;;;;;;;6.13;2.05;;;;;;;11.25;100.00;102010.03;5050152;28;20511;-55
2023/09/25 02:02:52;;;;;;;6.40;1.95;;;;;;;11.32;100.00;102011.41;5050695;28;20053;-54
2023/09/25 02:05:21;;;;;;;5.85;1.98;;;;;;;11.38;100.00;102012.88;5051651;28;20088;-55
2023/09/25 02:07:50;;;;;;;6.63;1.88;;;;;;;11.29;100.00;102003.69;5048950;28;20472;-56
2023/09/25 02:10:21;;;;;;;6.05;2.05;;;;;;;11.28;100.00;102009.88;5052224;28;20133;-54
2023/09/25 02:12:49;;;;;;;5.78;1.90;;;;;;;11.33;100.00;102010.50;5050752;28;20616;-55
2023/09/25 02:15:18;;;;;;;5.82;2.00;;;;;;;11.27;100.00;102004.69;5049580;28;20124;-54
2023/09/25 02:17:47;;;;;;;3.40;1.70;;;;;;;11.31;100.00;102001.81;5049897;28;20127;-55
2023/09/25 02:20:19;;;;;;;4.18;1.85;;;;;;;11.29;100.00;102001.06;5049392;28;20072;-55
2023/09/25 02:22:47;;;;;;;4.25;1.70;;;;;;;11.37;100.00;102005.06;5051560;28;20049;-54
2023/09/25 02:25:17;;;;;;;3.60;1.70;;;;;;;11.37;100.00;101994.53;5052912;28;20067;-55
2023/09/25 02:27:46;;;;;;;4.28;1.75;;;;;;;11.32;100.00;101992.97;5052948;28;20083;-52
2023/09/25 02:30:15;;;;;;;5.28;1.70;;;;;;;11.35;100.00;102002.50;5049553;28;20049;-53
2023/09/25 02:32:44;;;;;;;4.93;1.75;;;;;;;11.36;100.00;101993.69;5049630;28;20059;-54
2023/09/25 02:35:13;;;;;;;5.25;1.88;;;;;;;11.30;100.00;101993.97;5048948;28;20083;-52
2023/09/25 02:37:44;;;;;;;4.45;1.70;;;;;;;11.40;100.00;101999.63;5049841;28;20060;-54
2023/09/25 02:40:13;;;;;;;4.03;1.70;;;;;;;11.38;100.00;101993.63;5047811;28;20068;-52
2023/09/25 02:42:45;;;;;;;4.95;2.00;;;;;;;11.36;100.00;101993.69;5049458;28;20052;-54
2023/09/25 02:45:18;;;;;;;4.93;1.92;;;;;;;11.33;100.00;101997.34;5051440;28;20053;-54
2023/09/25 02:47:46;;;;;;;4.07;1.65;;;;;;;11.28;100.00;101994.06;5052710;28;20793;-54
2023/09/25 02:50:15;;;;;;;4.30;1.80;;;;;;;11.35;100.00;101988.50;5051292;28;20118;-52
2023/09/25 02:52:44;;;;;;;4.32;2.03;;;;;;;11.29;100.00;101994.94;5052483;28;20487;-55
2023/09/25 02:55:13;;;;;;;4.55;1.88;;;;;;;11.30;100.00;101992.22;5050505;28;20049;-54
2023/09/25 02:57:42;;;;;;;4.18;2.00;;;;;;;11.29;100.00;101994.94;5049226;28;20045;-53
2023/09/25 03:00:13;;;;;;;3.65;1.83;;;;;;;11.28;100.00;101993.22;5049214;28;20055;-55
2023/09/25 03:02:42;;;;;;;5.82;2.22;;;;;;;11.28;100.00;102001.13;5049533;28;20053;-56
2023/09/25 03:05:14;;;;;;;5.38;2.13;;;;;;;11.23;100.00;101997.88;5047639;28;20407;-53
2023/09/25 03:07:42;;;;;;;5.63;1.95;;;;;;;11.25;100.00;102001.28;5048943;28;20045;-51
2023/09/25 03:10:10;;;;;;;6.40;2.00;;;;;;;11.22;100.00;102004.06;5052281;28;20426;-55
2023/09/25 03:12:39;;;;;;;4.45;1.77;;;;;;;11.22;100.00;102007.56;5052374;28;20407;-55
2023/09/25 03:15:12;;;;;;;4.43;1.83;;;;;;;11.23;100.00;102008.41;5052562;28;20044;-55
2023/09/25 03:17:40;;;;;;;4.10;1.80;;;;;;;11.30;100.00;102004.53;5052320;28;20059;-54
2023/09/25 03:20:14;;;;;;;6.15;2.10;;;;;;;11.24;100.00;102000.41;5052118;28;20523;-54
2023/09/25 03:22:45;;;;;;;6.63;2.10;;;;;;;11.22;100.00;101997.03;5052147;28;20041;-52
2023/09/25 03:25:14;;;;;;;5.95;2.30;;;;;;;11.20;100.00;101998.88;5048302;28;20053;-52
2023/09/25 03:27:43;;;;;;;4.53;1.98;;;;;;;11.18;100.00;101991.97;5048829;28;20056;-54
2023/09/25 03:30:14;;;;;;;5.70;2.17;;;;;;;11.22;100.00;101996.16;5047881;28;20045;-53
2023/09/25 03:32:42;;;;;;;4.88;2.17;;;;;;;11.22;100.00;101996.16;5051327;28;20052;-55
2023/09/25 03:35:11;;;;;;;4.05;2.08;;;;;;;11.15;100.00;101993.84;5048542;28;20052;-54
2023/09/25 03:37:39;;;;;;;7.03;2.40;;;;;;;11.26;100.00;101998.56;5048642;28;20504;-50
2023/09/25 03:40:10;;;;;;;5.28;2.00;;;;;;;11.18;100.00;101991.97;5046553;28;20064;-55
2023/09/25 03:42:39;;;;;;;3.90;1.90;;;;;;;11.21;100.00;101995.31;5048519;28;20080;-54
2023/09/25 03:45:08;;;;;;;3.80;1.80;;;;;;;11.31;100.00;101991.28;5048188;28;20129;-53
2023/09/25 03:47:38;;;;;;;4.15;1.88;;;;;;;11.30;100.00;101988.72;5049334;28;20093;-54
2023/09/25 03:50:08;;;;;;;4.75;2.08;;;;;;;11.29;100.00;101997.56;5049151;28;20527;-52
2023/09/25 03:52:36;;;;;;;4.78;1.83;;;;;;;11.33;100.00;101986.78;5047833;28;20059;-54
2023/09/25 03:55:05;;;;;;;3.63;1.73;;;;;;;11.35;100.00;101999.03;5046005;28;20115;-52
2023/09/25 03:57:33;;;;;;;8.18;2.15;;;;;;;11.32;100.00;102000.03;5048648;28;20124;-54
2023/09/25 04:00:01;;;;;;;4.93;1.85;;;;;;;11.33;100.00;102007.03;5047911;28;20048;-53
2023/09/25 04:02:29;;;;;;;5.97;1.98;;;;;;;11.32;100.00;102006.16;5048218;28;20045;-55
2023/09/25 04:04:58;;;;;;;6.22;2.10;;;;;;;11.35;100.00;102001.69;5047777;28;20045;-54
2023/09/25 04:07:26;;;;;;;4.38;1.98;;;;;;;11.31;100.00;102001.81;5047705;28;20067;-53
2023/09/25 04:09:55;;;;;;;5.82;2.17;;;;;;;11.30;100.00;101997.50;5049922;28;20040;-53
2023/09/25 04:12:23;;;;;;;4.68;1.85;;;;;;;11.33;100.00;101999.13;5047993;28;20051;-53
2023/09/25 04:14:53;;;;;;;5.20;2.17;;;;;;;11.30;100.00;101999.25;5049056;28;20053;-53
2023/09/25 04:17:21;;;;;;;5.25;1.90;;;;;;;11.36;100.00;101996.31;5049453;28;20558;-51
2023/09/25 04:19:49;;;;;;;3.85;1.80;;;;;;;11.30;100.00;101999.25;5047637;28;20045;-54
2023/09/25 04:22:20;;;;;;;4.95;1.90;;;;;;;11.29;100.00;101998.41;5050746;28;20063;-54
2023/09/25 04:24:48;;;;;;;5.22;2.03;;;;;;;11.26;100.00;102003.84;5050272;28;20092;-54
2023/09/25 04:27:16;;;;;;;6.15;2.20;;;;;;;11.32;100.00;102000.03;5047157;28;20103;-54
2023/09/25 04:29:45;;;;;;;5.60;2.03;;;;;;;11.31;100.00;102001.81;5048054;28;20052;-55
2023/09/25 04:32:14;;;;;;;4.68;2.13;;;;;;;11.38;100.00;102006.78;5048079;28;20052;-53
2023/09/25 04:34:43;;;;;;;4.90;1.98;;;;;;;11.30;100.00;102005.41;5048087;28;20098;-56
2023/09/25 04:37:11;;;;;;;4.07;1.90;;;;;;;11.43;100.00;102010.03;5047330;28;20087;-54
2023/09/25 04:39:40;;;;;;;6.68;2.20;;;;;;;11.42;100.00;102009.16;5048830;28;20522;-54
2023/09/25 04:42:11;;;;;;;4.32;2.03;;;;;;;11.32;100.00;102007.94;5049426;28;20048;-53
2023/09/25 04:44:40;;;;;;;5.28;2.10;;;;;;;11.28;100.00;102009.88;5047790;28;20129;-54
2023/09/25 04:47:09;;;;;;;6.05;1.83;;;;;;;11.31;100.00;102009.72;5047367;28;20037;-54
2023/09/25 04:49:38;;;;;;;3.83;1.80;;;;;;;11.29;100.00;102005.47;5047298;28;20057;-54
2023/09/25 04:52:06;;;;;;;6.43;2.00;;;;;;;11.31;100.00;102001.81;5047490;28;20095;-54
2023/09/25 04:54:37;;;;;;;3.85;1.80;;;;;;;11.30;100.00;102010.66;5049012;28;20049;-54
2023/09/25 04:57:06;;;;;;;7.13;2.05;;;;;;;11.32;100.00;102002.69;5050710;28;20402;-53
2023/09/25 04:59:35;;;;;;;4.53;2.00;;;;;;;11.38;100.00;102006.78;5047694;28;20064;-55
2023/09/25 05:02:03;;;;;;;5.38;2.05;;;;;;;11.28;100.00;102006.41;5047708;28;20487;-54
2023/09/25 05:04:31;;;;;;;3.40;1.73;;;;;;;11.27;100.00;102004.69;5048029;28;20056;-53
2023/09/25 05:06:59;;;;;;;4.90;2.30;;;;;;;11.23;100.00;102003.97;5050690;28;20406;-54
2023/09/25 05:09:27;;;;;;;5.55;2.28;;;;;;;11.24;100.00;102003.03;5050505;28;20151;-54
2023/09/25 05:11:56;;;;;;;5.13;1.90;;;;;;;11.23;100.00;102003.97;5052342;28;20399;-54
2023/09/25 05:14:27;;;;;;;5.28;1.83;;;;;;;11.29;100.00;102003.69;5054517;28;20049;-55
2023/09/25 05:16:55;;;;;;;6.40;2.28;;;;;;;11.23;100.00;102009.25;5051076;28;20148;-54
2023/09/25 05:19:23;;;;;;;4.32;1.83;;;;;;;11.25;100.00;102006.56;5051647;28;20514;-57
2023/09/25 05:21:52;;;;;;;4.50;1.80;;;;;;;11.31;100.00;102017.59;5052517;28;20075;-53
2023/09/25 05:24:20;;;;;;;5.95;2.40;;;;;;;11.26;100.00;102006.47;5050842;28;20076;-54
2023/09/25 05:26:48;;;;;;;4.15;1.70;;;;;;;11.26;100.00;102014.38;5049321;28;20119;-55
2023/09/25 05:29:16;;;;;;;5.93;2.60;;;;;;;11.24;100.00;102005.69;5053991;28;20055;-55
2023/09/25 05:31:46;;;;;;;4.88;1.90;;;;;;;11.31;100.00;102014.13;5053306;28;20083;-54
2023/09/25 05:34:14;;;;;;;4.22;1.73;;;;;;;11.26;100.00;102009.09;5050484;28;20565;-54
2023/09/25 05:36:42;;;;;;;6.15;1.70;;;;;;;11.24;100.00;102010.94;5052185;28;20086;-53
2023/09/25 05:39:11;;;;;;;6.53;2.08;;;;;;;11.19;100.00;102012.94;5050969;28;20475;-54
2023/09/25 05:41:39;;;;;;;4.82;1.67;;;;;;;11.19;100.00;102018.22;5049301;28;20044;-56
2023/09/25 05:44:08;;;;;;;4.55;2.00;;;;;;;11.26;100.00;102024.03;5050260;28;20049;-55
2023/09/25 05:46:36;;;;;;;4.75;1.90;;;;;;;11.18;100.00;102026.19;5050011;28;20839;-56
2023/09/25 05:49:07;;;;;;;4.60;1.80;;;;;;;11.16;100.00;102021.84;5048793;28;20123;-56
2023/09/25 05:51:35;;;;;;;6.72;2.00;;;;;;;11.16;100.00;102021.84;5048843;28;20060;-56
2023/09/25 05:54:05;;;;;;;5.88;2.00;;;;;;;11.16;100.00;102026.28;5050173;28;20537;-53
2023/09/25 05:56:33;;;;;;;5.03;1.90;;;;;;;11.16;100.00;102023.63;5047335;28;20048;-54
2023/09/25 05:59:02;;;;;;;5.15;2.20;;;;;;;11.17;100.00;102022.72;5050287;28;20059;-54
2023/09/25 06:01:30;;;;;;;6.32;1.92;;;;;;;11.24;100.00;102026.75;5050056;28;20111;-54
2023/09/25 06:03:58;;;;;;;5.10;1.73;;;;;;;11.20;100.00;102032.25;5050029;28;20045;-54
2023/09/25 06:06:28;;;;;;;3.97;2.00;;;;;;;11.20;100.00;102027.00;5049578;28;20052;-55
2023/09/25 06:08:56;;;;;;;4.95;1.88;;;;;;;11.18;100.00;102045.50;5052592;28;20130;-54
2023/09/25 06:11:27;;;;;;;4.28;1.83;;;;;;;11.25;100.00;102033.72;5048158;28;20114;-54
2023/09/25 06:13:55;;;;;;;4.15;1.90;;;;;;;11.22;100.00;102052.31;5049975;28;20060;-54
2023/09/25 06:16:24;;;;;;;4.75;1.92;;;;;;;11.30;100.00;102039.63;5048455;28;20068;-54
2023/09/25 06:18:52;;;;;;;4.70;2.08;;;;;;;11.33;100.00;102049.16;5049523;28;20495;-55
2023/09/25 06:21:20;;;;;;;5.85;2.08;;;;;;;11.40;100.00;102047.06;5049378;28;20548;-53
2023/09/25 06:23:50;;;;;;;4.68;2.13;;;;;;;11.36;100.00;102053.41;5049521;28;20045;-54
2023/09/25 06:26:18;;;;;;;4.35;1.85;;;;;;;11.42;100.00;102053.94;5048296;28;20044;-55
2023/09/25 06:28:46;;;;;;;4.38;2.05;;;;;;;11.44;100.00;102052.13;5049547;28;20041;-54
2023/09/25 06:31:16;;;;;;;3.88;2.03;;;;;;;11.50;100.00;102050.94;5051453;28;20136;-55
2023/09/25 06:33:45;;;;;;;3.92;1.90;;;;;;;11.49;100.00;102046.59;5052707;28;20126;-55
2023/09/25 06:36:13;;;;;;;4.10;2.00;;;;;;;11.59;100.00;102052.25;5052792;28;20087;-55
2023/09/25 06:38:42;;;;;;;5.85;1.85;;;;;;;11.61;100.00;102053.03;5053133;28;20400;-54
2023/09/25 06:41:12;;;;;;;6.28;2.30;;;;;;;11.63;100.00;102054.69;5052929;28;20654;-55
2023/09/25 06:43:40;;;;;;;9.40;2.00;;;;;;;11.66;100.00;102051.03;5052973;28;20056;-55
2023/09/25 06:46:09;;;;;;;3.30;1.75;;;;;;;11.73;100.00;102048.94;5049546;28;20037;-54
2023/09/25 06:48:37;;;;;;;5.05;1.80;;;;;;;11.78;100.00;102041.63;5049474;28;20541;-54
2023/09/25 06:51:05;;;;;;;5.30;2.15;;;;;;;11.87;100.00;102050.88;5049755;28;20045;-54
2023/09/25 06:53:34;;;;;;;8.57;2.58;;;;;;;11.99;100.00;102051.09;5050380;28;21145;-53
2023/09/25 06:56:02;;;;;;;7.43;2.42;;;;;;;12.04;100.00;102048.25;5047052;28;20079;-55
2023/09/25 06:58:32;;;;;;;4.90;2.03;;;;;;;12.16;100.00;102054.66;5049155;28;20142;-55
2023/09/25 07:01:00;;;;;;;3.50;1.77;;;;;;;12.22;100.00;102046.41;5048560;28;20057;-55
2023/09/25 07:03:29;;;;;;;4.55;2.08;;;;;;;12.36;100.00;102052.75;5048588;28;20495;-55
2023/09/25 07:05:57;;;;;;;5.32;2.10;;;;;;;12.53;100.00;102047.44;5046771;28;20041;-53
2023/09/25 07:08:27;;;;;;;5.25;2.30;;;;;;;12.62;100.00;102043.41;5048808;28;20068;-54
2023/09/25 07:10:55;;;;;;;6.18;1.98;;;;;;;12.82;100.00;102045.81;5047356;28;20083;-55
2023/09/25 07:13:24;;;;;;;4.30;1.80;;;;;;;12.94;100.00;102048.69;5048754;28;20124;-54
2023/09/25 07:16:03;;;;;;;9.32;2.25;;;;;;;13.09;100.00;102036.41;5048203;28;20045;-54
2023/09/25 07:18:31;;;;;;;4.53;2.00;;;;;;;13.18;100.00;102042.06;5048581;28;20048;-55
2023/09/25 07:21:00;;;;;;;5.30;1.80;;;;;;;13.28;100.00;102047.66;5048144;28;20094;-53
2023/09/25 07:23:29;;;;;;;3.95;1.75;;;;;;;13.45;100.00;102040.56;5051330;28;20049;-53
2023/09/25 07:26:04;;;;;;;4.63;1.92;;;;;;;13.54;100.00;102042.69;5051980;28;20049;-53
2023/09/25 07:28:32;;;;;;;4.68;2.03;;;;;;;13.62;100.00;102045.72;5050624;28;20045;-55
2023/09/25 07:31:02;;;;;;;5.55;2.05;;;;;;;13.72;100.00;102050.47;5048050;28;20036;-56
2023/09/25 07:33:31;;;;;;;4.97;1.95;;;;;;;13.82;100.00;102038.38;5048359;28;20041;-53
2023/09/25 07:36:01;;;;;;;5.68;2.00;;;;;;;13.88;100.00;102040.66;5046894;28;20045;-55
2023/09/25 07:38:32;;;;;;;;;;;;;;;13.98;100.00;102047.09;5052185;28;20053;-55
2023/09/25 07:41:02;;;;;;;7.60;2.22;;;;;;;14.16;100.00;102044.28;5051702;28;19925;-53
2023/09/25 07:43:30;;;;;;;5.00;1.90;;;;;;;14.25;100.00;102038.41;5051793;28;20377;-53
2023/09/25 07:46:03;;;;;;;5.10;2.00;;;;;;;14.33;100.00;102041.44;5051675;28;20048;-55
2023/09/25 07:48:32;;;;;;;6.03;2.00;;;;;;;14.48;100.00;102036.97;5051324;28;20057;-52
2023/09/25 07:51:00;;;;;;;5.47;2.17;;;;;;;14.59;100.00;102044.25;5050656;28;20102;-54
2023/09/25 07:53:28;;;;;;;7.03;1.95;;;;;;;14.63;100.00;102043.13;5047403;28;20052;-51
2023/09/25 07:55:57;;;;;;;5.50;1.95;;;;;;;14.81;100.00;102037.63;5047763;28;20087;-54
2023/09/25 07:58:27;;;;;;;4.65;2.05;;;;;;;14.97;100.00;102040.09;5048744;28;20139;-54
2023/09/25 08:01:00;;;;;;;4.82;1.83;;;;;;;15.01;100.00;102044.25;5047094;28;20055;-55
2023/09/25 08:03:30;;;;;;;7.32;2.10;;;;;;;15.17;100.00;102049.41;5047814;28;20053;-54
2023/09/25 08:06:03;;;;;;;5.47;1.73;;;;;;;15.28;100.00;102048.72;5046258;28;20052;-50
2023/09/25 08:08:31;;;;;;;5.93;2.10;;;;;;;15.44;100.00;102051.19;5047012;28;20037;-54
2023/09/25 08:10:59;;;;;;;6.00;1.85;;;;;;;15.60;100.00;102053.66;5045997;28;20040;-52
2023/09/25 08:13:30;;;;;;;5.45;2.00;;;;;;;15.73;100.00;102051.88;5048132;28;20048;-54
2023/09/25 08:16:05;;;;;;;7.35;2.10;;;;;;;15.84;100.00;102056.47;5050352;28;20048;-53
2023/09/25 08:18:35;;;;;;;6.40;2.00;;;;;;;15.96;100.00;102054.81;5047574;28;20052;-54
2023/09/25 08:21:04;;;;;;;6.25;1.83;;;;;;;16.05;100.00;102049.69;5048947;28;20048;-53
2023/09/25 08:23:35;;;;;;;6.57;1.73;;;;;;;16.23;100.00;102046.72;5051420;28;20099;-53
2023/09/25 08:26:05;;;;;;;6.72;1.95;;;;;;;16.35;100.00;102053.81;5045921;28;20128;-54
2023/09/25 08:28:34;;;;;;;4.75;1.90;;;;;;;16.55;100.00;102041.78;5047334;28;20045;-53
2023/09/25 08:31:02;;;;;;;7.13;2.00;;;;;;;16.56;100.00;102045.28;5047373;28;20055;-51
2023/09/25 08:33:30;;;;;;;5.80;1.88;;;;;;;16.60;100.00;102046.75;5051448;28;20522;-52
2023/09/25 08:36:00;;;;;;;5.55;1.92;;;;;;;16.71;100.00;102057.47;5051438;28;20402;-53
2023/09/25 08:38:28;;;;;;;5.03;1.60;;;;;;;16.89;100.00;102050.00;5049695;28;20075;-53
2023/09/25 08:40:57;;;;;;;4.72;1.88;;;;;;;16.96;100.00;102045.09;5048775;28;20049;-52
2023/09/25 08:43:26;;;;;;;3.78;1.70;;;;;;;17.10;100.00;102045.84;5051663;28;20416;-52
2023/09/25 08:45:56;;;;;;;6.68;2.00;;;;;;;17.15;100.00;102049.03;5050844;28;20399;-53
2023/09/25 08:48:24;;;;;;;4.28;1.70;;;;;;;17.16;100.00;102045.41;5054266;28;20549;-53
2023/09/25 08:50:53;;;;;;;4.82;1.90;;;;;;;17.27;100.00;102040.13;5051475;28;20041;-52
2023/09/25 08:53:25;;;;;;;4.82;1.80;;;;;;;17.29;100.00;102040.88;5051042;28;20120;-54
2023/09/25 08:55:54;;;;;;;4.20;1.90;;;;;;;17.38;100.00;102037.53;5050009;28;20048;-51
2023/09/25 08:58:24;;;;;;;3.33;1.58;;;;;;;17.50;100.00;102041.06;5051713;28;20045;-53
2023/09/25 09:00:53;;;;;;;5.65;1.60;;;;;;;17.46;100.00;102036.94;5051167;28;20061;-54
2023/09/25 09:03:21;;;;;;;4.68;1.70;;;;;;;17.59;100.00;102042.19;5051375;28;20128;-53
2023/09/25 09:05:50;;;;;;;5.40;1.88;;;;;;;17.77;100.00;102034.63;5051403;28;20049;-54
2023/09/25 09:08:18;;;;;;;5.32;2.30;;;;;;;18.03;100.00;102035.28;5051054;28;20045;-52
2023/09/25 09:10:47;;;;;;;5.07;1.58;;;;;;;17.93;100.00;102025.47;5048848;28;20048;-53
2023/09/25 09:13:23;;;;;;;4.88;1.98;;;;;;;18.04;100.00;102031.66;5050994;28;20114;-51
2023/09/25 09:15:51;;;;;;;3.53;1.75;;;;;;;18.17;100.00;102033.34;5050839;28;20083;-53
2023/09/25 09:18:21;;;;;;;6.15;1.73;;;;;;;18.37;100.00;102026.44;5052751;28;20061;-54
2023/09/25 09:20:54;;;;;;;5.85;2.00;;;;;;;18.41;100.00;102027.91;5054560;28;20449;-53
2023/09/25 09:23:39;;;;;;;4.78;1.85;;;;;;;18.49;100.00;102028.13;5054614;28;20051;-52
2023/09/25 09:26:12;;;;;;;4.75;1.80;;;;;;;18.68;100.00;102019.50;5048587;28;20419;-52
2023/09/25 09:28:42;;;;;;;5.60;1.73;;;;;;;18.79;100.00;102025.75;5051157;28;20048;-54
2023/09/25 09:31:10;;;;;;;3.55;1.60;;;;;;;18.99;100.00;102022.34;5049980;28;20049;-51
2023/09/25 09:33:42;;;;;;;5.65;1.40;;;;;;;19.02;100.00;102023.91;5051335;28;20041;-53
2023/09/25 09:36:12;;;;;;;5.18;1.70;;;;;;;19.17;100.00;102019.97;5050139;28;20548;-51
2023/09/25 09:38:46;;;;;;;4.82;2.05;;;;;;;19.39;100.00;102021.69;5050673;28;20076;-55
2023/09/25 09:41:15;;;;;;;4.88;1.60;;;;;;;19.34;100.00;102018.56;5052777;28;20053;-51
2023/09/25 09:43:45;;;;;;;5.20;1.90;;;;;;;19.50;100.00;102017.28;5050768;28;20056;-54
2023/09/25 09:46:14;;;;;;;4.03;1.50;;;;;;;19.71;100.00;102018.09;5049795;28;20053;-54
2023/09/25 09:48:45;;;;;;;5.47;1.70;;;;;;;19.88;100.00;102016.69;5053252;28;20065;-54
2023/09/25 09:51:17;;;;;;;4.30;1.50;;;;;;;20.00;97.12;102025.47;5050212;28;20053;-53
2023/09/25 09:53:46;;;;;;;4.53;1.58;;;;;;;20.10;99.13;102034.34;5050206;28;20044;-52
2023/09/25 09:56:18;;;;;;;4.50;1.58;;;;;;;20.21;95.92;102021.88;5048196;28;20049;-51
2023/09/25 09:58:48;;;;;;;5.38;1.75;;;;;;;20.15;94.79;102033.09;5050324;28;20508;-54
2023/09/25 10:01:18;;;;;;;4.53;1.60;;;;;;;20.39;99.04;102028.25;5049383;28;20055;-51
2023/09/25 10:03:47;;;;;;;4.47;1.52;;;;;;;20.68;92.72;102034.66;5050360;28;20041;-53
2023/09/25 10:06:16;;;;;;;3.58;1.48;;;;;;;20.87;94.28;102025.88;5049384;28;20049;-53
2023/09/25 10:09:01;;;;;;;3.50;1.73;;;;;;;21.00;93.68;102031.78;5050348;28;20052;-54
2023/09/25 10:11:31;;;;;;;6.60;2.00;;;;;;;20.91;92.82;102040.63;5048474;28;20053;-54
2023/09/25 10:14:03;;;;;;;4.13;1.70;;;;;;;21.13;92.53;102036.84;5050155;28;20053;-55
2023/09/25 10:16:52;;;;;;;5.55;1.70;;;;;;;20.92;90.49;102037.81;5049589;28;20104;-54
2023/09/25 10:19:34;;;;;;;5.63;1.90;;;;;;;20.86;92.47;102042.88;5048602;28;20053;-55
2023/09/25 10:22:12;;;;;;;7.05;1.95;;;;;;;20.86;90.23;102034.84;5049503;28;20045;-54
2023/09/25 10:24:43;;;;;;;5.18;1.88;;;;;;;20.88;91.81;102030.22;5053479;28;20155;-55
2023/09/25 10:27:14;;;;;;;4.53;1.75;;;;;;;21.09;88.78;102027.41;5053623;28;20507;-54
2023/09/25 10:30:07;;;;;;;6.07;1.90;;;;;;;21.20;91.15;102027.28;5053386;28;20036;-53
2023/09/25 10:32:40;;;;;;;5.95;1.88;;;;;;;21.30;90.60;102023.75;5053386;28;20420;-52
2023/09/25 10:35:42;;;;;;;4.72;1.70;;;;;;;21.41;90.08;102019.09;5052228;28;20387;-54
2023/09/25 10:38:13;;;;;;;5.18;1.70;;;;;;;21.60;90.46;102020.09;5046746;28;20080;-54
2023/09/25 10:41:01;;;;;;;5.72;1.90;;;;;;;21.76;86.50;102020.34;5047293;28;20082;-55
2023/09/25 10:43:31;;;;;;;5.70;2.15;;;;;;;21.73;88.21;102025.97;5049838;28;20049;-52
2023/09/25 10:46:00;;;;;;;5.53;1.73;;;;;;;21.62;92.23;102010.06;5049297;28;20102;-53
2023/09/25 10:48:31;;;;;;;4.80;1.88;;;;;;;22.02;87.00;102022.34;5051325;28;20058;-56
2023/09/25 10:51:00;;;;;;;5.93;1.85;;;;;;;22.36;88.03;102023.63;5051764;28;20483;-54
2023/09/25 10:53:28;;;;;;;4.32;1.83;;;;;;;22.32;87.00;102017.72;5051486;28;20450;-54
2023/09/25 10:55:56;;;;;;;4.88;1.80;;;;;;;22.38;84.72;102019.81;5051420;28;20090;-54
2023/09/25 10:58:24;;;;;;;5.25;1.80;;;;;;;22.55;83.23;102023.53;5048206;28;20045;-51
2023/09/25 11:00:54;;;;;;;4.40;1.70;;;;;;;22.81;86.54;102013.91;5050901;28;20414;-52
2023/09/25 11:03:22;;;;;;;4.22;1.80;;;;;;;22.74;83.63;102017.22;5051200;28;20045;-52
2023/09/25 11:05:53;;;;;;;5.93;1.80;;;;;;;22.81;88.14;102012.09;5052151;28;20459;-54
2023/09/25 11:08:21;;;;;;;6.88;1.98;;;;;;;22.53;83.77;102011.28;5052346;28;20037;-53
2023/09/25 11:10:50;;;;;;;5.53;1.70;;;;;;;22.44;84.32;102013.88;5052264;28;20045;-55
2023/09/25 11:13:19;;;;;;;5.53;1.92;;;;;;;22.60;84.33;102013.19;5052486;28;20442;-53
2023/09/25 11:15:47;;;;;;;5.40;1.90;;;;;;;22.72;85.09;102021.88;5052420;28;20130;-52
2023/09/25 11:18:19;;;;;;;6.15;2.03;;;;;;;22.86;84.47;102025.03;5052370;28;20045;-54
2023/09/25 11:20:48;;;;;;;4.17;1.90;;;;;;;23.07;84.73;102022.88;5050948;28;20047;-55
2023/09/25 11:23:17;;;;;;;5.25;1.90;;;;;;;23.25;82.64;102040.84;5052224;28;20095;-53
2023/09/25 11:25:51;;;;;;;5.43;2.17;;;;;;;23.35;83.80;102038.91;5052590;28;20048;-53
2023/09/25 11:28:21;;;;;;;6.18;2.00;;;;;;;23.37;83.40;102038.72;5052101;28;20048;-52
2023/09/25 11:30:50;;;;;;;4.90;1.60;;;;;;;23.65;83.68;102034.06;5051987;28;20037;-54